Time;durP1;ratioP1;P1;durP2;ratioP2;P2;SDS_P1;SDS_P2;PMS_P1;PMS_P2;Temp;Humidity;BMP_temperature;BMP_pressure;BME280_temperature;BME280_humidity;BME280_pressure;Samples;Min_cycle;Max_cycle;Signal;HPM_P1;HPM_P2
2023/03/18 00:01:24;;;;;;;8.70;3.17;;;12.00;99.90;;;;;;5034487;28;20072;-48
2023/03/18 00:03:50;;;;;;;9.25;2.88;;;12.00;99.90;;;;;;5032982;28;20108;-47
2023/03/18 00:06:18;;;;;;;7.28;2.47;;;12.00;99.90;;;;;;5031499;28;20228;-48
2023/03/18 00:08:46;;;;;;;6.65;2.85;;;12.00;99.90;;;;;;5030102;28;20507;-48
2023/03/18 00:11:12;;;;;;;5.57;2.42;;;12.00;99.90;;;;;;5033164;28;20026;-46
2023/03/18 00:13:40;;;;;;;6.28;3.05;;;12.00;99.90;;;;;;5033445;28;20471;-48
2023/03/18 00:16:07;;;;;;;8.27;2.40;;;11.90;99.90;;;;;;5031966;28;20382;-47
2023/03/18 00:18:33;;;;;;;7.00;2.58;;;12.00;99.90;;;;;;5030150;28;20064;-48
2023/03/18 00:20:59;;;;;;;9.88;2.78;;;11.90;99.90;;;;;;5032000;28;20433;-47
2023/03/18 00:23:26;;;;;;;4.85;3.05;;;11.90;99.90;;;;;;5030852;28;20107;-46
2023/03/18 00:25:55;;;;;;;7.43;2.75;;;11.90;99.90;;;;;;5029731;28;20103;-47
2023/03/18 00:28:22;;;;;;;4.68;2.80;;;11.90;99.90;;;;;;5030327;28;20124;-48
2023/03/18 00:30:48;;;;;;;5.95;2.67;;;11.90;99.90;;;;;;5032441;28;20041;-48
2023/03/18 00:33:15;;;;;;;4.70;3.08;;;11.90;99.90;;;;;;5036321;28;20037;-49
2023/03/18 00:35:41;;;;;;;6.80;3.50;;;11.90;99.90;;;;;;5045757;28;20037;-48
2023/03/18 00:38:08;;;;;;;3.28;2.97;;;11.80;99.90;;;;;;5047580;28;20052;-48
2023/03/18 00:40:52;;;;;;;5.53;2.95;;;11.80;99.90;;;;;;5047814;28;20516;-48
2023/03/18 00:43:28;;;;;;;4.13;3.00;;;11.80;99.90;;;;;;5037823;28;20449;-47
2023/03/18 00:45:55;;;;;;;7.05;3.60;;;11.80;99.90;;;;;;5030543;28;20030;-46
2023/03/18 00:48:22;;;;;;;13.07;3.55;;;11.80;99.90;;;;;;5032405;28;20376;-47
2023/03/18 00:50:48;;;;;;;10.32;3.33;;;11.80;99.90;;;;;;5030556;28;20079;-47
2023/03/18 00:53:14;;;;;;;4.95;3.25;;;11.80;99.90;;;;;;5032844;28;20041;-48
2023/03/18 00:55:41;;;;;;;4.63;3.30;;;11.80;99.90;;;;;;5045064;28;20069;-47
2023/03/18 00:58:08;;;;;;;7.53;2.97;;;11.80;99.90;;;;;;5032779;28;20025;-49
2023/03/18 01:00:36;;;;;;;6.32;3.00;;;11.80;99.90;;;;;;5030841;28;20029;-47
2023/03/18 01:03:03;;;;;;;11.75;3.35;;;11.80;99.90;;;;;;5030982;28;20095;-48
2023/03/18 01:05:30;;;;;;;6.85;3.13;;;11.80;99.90;;;;;;5034635;28;20041;-47
2023/03/18 01:07:57;;;;;;;6.50;2.70;;;11.80;99.90;;;;;;5044460;28;20065;-49
2023/03/18 01:10:23;;;;;;;7.28;3.42;;;11.70;99.90;;;;;;5046040;28;20040;-48
2023/03/18 01:12:49;;;;;;;5.88;2.60;;;11.70;99.90;;;;;;5046019;28;20484;-48
2023/03/18 01:15:17;;;;;;;5.95;2.90;;;11.70;99.90;;;;;;5047772;28;20040;-48
2023/03/18 01:17:44;;;;;;;5.07;3.22;;;11.60;99.90;;;;;;5031497;28;20503;-48
2023/03/18 01:20:12;;;;;;;11.20;3.55;;;11.60;99.90;;;;;;5047764;28;20033;-48
2023/03/18 01:22:40;;;;;;;8.35;3.70;;;11.60;99.90;;;;;;5046078;28;20043;-48
2023/03/18 01:25:07;;;;;;;7.53;3.80;;;11.50;99.90;;;;;;5034635;28;20068;-48
2023/03/18 01:27:33;;;;;;;4.93;2.75;;;11.60;99.90;;;;;;5045552;28;20041;-48
2023/03/18 01:29:59;;;;;;;4.05;2.83;;;11.50;99.90;;;;;;5041678;28;20025;-49
2023/03/18 01:32:25;;;;;;;9.18;3.40;;;11.50;99.90;;;;;;5030186;28;20079;-47
2023/03/18 01:34:51;;;;;;;6.38;3.40;;;11.50;99.90;;;;;;5029854;28;20052;-46
2023/03/18 01:37:18;;;;;;;6.03;3.10;;;11.50;99.90;;;;;;5045018;28;20573;-48
2023/03/18 01:39:44;;;;;;;5.55;3.13;;;11.50;99.90;;;;;;5044629;28;20033;-48
2023/03/18 01:42:10;;;;;;;11.00;4.28;;;11.50;99.90;;;;;;5046010;28;20028;-48
2023/03/18 01:44:36;;;;;;;7.93;3.22;;;11.50;99.90;;;;;;5047424;28;20032;-49
2023/03/18 01:47:02;;;;;;;5.88;3.15;;;11.50;99.90;;;;;;5046893;28;20513;-49
2023/03/18 01:49:36;;;;;;;7.35;3.75;;;11.50;99.90;;;;;;5046577;28;20080;-48
2023/03/18 01:52:10;;;;;;;7.03;3.38;;;11.40;99.90;;;;;;5045323;28;20036;-49
2023/03/18 01:54:42;;;;;;;7.57;3.38;;;11.40;99.90;;;;;;5045832;28;20041;-50
2023/03/18 01:57:08;;;;;;;6.90;3.60;;;11.30;99.90;;;;;;5045442;28;20536;-48
2023/03/18 01:59:38;;;;;;;6.45;3.80;;;11.30;99.90;;;;;;5034007;28;20030;-50
2023/03/18 02:02:13;;;;;;;8.13;4.18;;;11.20;99.90;;;;;;5029098;28;20041;-48
2023/03/18 02:04:49;;;;;;;9.15;4.28;;;11.20;99.90;;;;;;5043262;28;20402;-47
2023/03/18 02:07:21;;;;;;;7.10;4.25;;;11.20;99.90;;;;;;5046645;28;20314;-48
2023/03/18 02:09:48;;;;;;;6.97;3.72;;;11.20;99.90;;;;;;5034243;28;20048;-47
2023/03/18 02:12:20;;;;;;;9.25;3.80;;;11.20;99.90;;;;;;5046343;28;20048;-49
2023/03/18 02:14:46;;;;;;;7.90;3.90;;;11.20;99.90;;;;;;5047342;28;20048;-48
2023/03/18 02:17:16;;;;;;;8.35;4.07;;;11.10;99.90;;;;;;5046654;28;20037;-48
2023/03/18 02:19:53;;;;;;;7.80;3.65;;;11.10;99.90;;;;;;5042447;28;20037;-51
2023/03/18 02:22:30;;;;;;;8.02;3.65;;;11.00;99.90;;;;;;5030494;28;20041;-54
2023/03/18 02:25:14;;;;;;;;;;;11.00;99.90;;;;;;5045273;28;20037;-51
2023/03/18 02:27:44;;;;;;;5.75;3.58;;;11.00;99.90;;;;;;5045596;28;20327;-53
2023/03/18 02:30:15;;;;;;;7.43;4.85;;;10.90;99.90;;;;;;5046417;28;20048;-48
2023/03/18 02:32:42;;;;;;;10.95;3.13;;;10.90;99.90;;;;;;5046825;28;20069;-48
2023/03/18 02:35:09;;;;;;;7.97;4.05;;;10.80;99.90;;;;;;5047162;28;20124;-48
2023/03/18 02:37:35;;;;;;;11.65;5.07;;;10.80;99.90;;;;;;5044412;28;20044;-48
2023/03/18 02:40:26;;;;;;;7.40;3.80;;;10.80;99.90;;;;;;5037045;28;20045;-53
2023/03/18 02:42:52;;;;;;;10.43;3.80;;;10.80;99.90;;;;;;5044655;28;20082;-47
2023/03/18 02:45:45;;;;;;;10.55;3.60;;;10.80;99.90;;;;;;5043127;28;20037;-50
2023/03/18 02:48:16;;;;;;;11.27;5.63;;;10.80;99.90;;;;;;5030467;28;20040;-53
2023/03/18 02:50:42;;;;;;;9.00;5.55;;;10.80;99.90;;;;;;5049803;28;20044;-51
2023/03/18 02:53:11;;;;;;;9.95;4.75;;;10.80;99.90;;;;;;5050341;28;20397;-51
2023/03/18 02:55:37;;;;;;;7.72;4.40;;;10.80;99.90;;;;;;5050779;28;20032;-49
2023/03/18 02:58:02;;;;;;;9.27;4.90;;;10.80;99.90;;;;;;5048060;28;20036;-48
2023/03/18 03:00:28;;;;;;;12.77;5.20;;;10.80;99.90;;;;;;5048859;28;20033;-49
2023/03/18 03:02:54;;;;;;;6.75;4.93;;;10.80;99.90;;;;;;5040286;28;20272;-47
2023/03/18 03:05:20;;;;;;;10.95;5.45;;;10.80;99.90;;;;;;5032287;28;20041;-47
2023/03/18 03:07:46;;;;;;;6.53;5.05;;;10.70;99.90;;;;;;5040867;28;20029;-48
2023/03/18 03:10:12;;;;;;;9.25;4.38;;;10.70;99.90;;;;;;5048912;28;20388;-48
2023/03/18 03:12:38;;;;;;;7.93;4.95;;;10.70;99.90;;;;;;5049361;28;20037;-49
2023/03/18 03:15:06;;;;;;;14.70;4.97;;;10.70;99.90;;;;;;5049883;28;20483;-46
2023/03/18 03:17:32;;;;;;;10.88;4.80;;;10.70;99.90;;;;;;5046102;28;20515;-47
2023/03/18 03:19:59;;;;;;;8.60;5.30;;;10.70;99.90;;;;;;5042262;28;20060;-48
2023/03/18 03:22:25;;;;;;;11.35;4.57;;;10.70;99.90;;;;;;5049399;28;20433;-49
2023/03/18 03:24:52;;;;;;;8.02;5.15;;;10.70;99.90;;;;;;5048635;28;20091;-48
2023/03/18 03:27:18;;;;;;;;;;;10.70;99.90;;;;;;5034835;28;20560;-47
2023/03/18 03:29:43;;;;;;;9.13;4.97;;;10.70;99.90;;;;;;5048637;28;19917;-47
2023/03/18 03:32:09;;;;;;;12.82;6.80;;;10.70;99.90;;;;;;5047528;28;20533;-46
2023/03/18 03:34:36;;;;;;;7.32;4.78;;;10.70;99.90;;;;;;5049561;28;20033;-47
2023/03/18 03:37:01;;;;;;;8.32;5.38;;;10.70;99.90;;;;;;5046791;28;20116;-49
2023/03/18 03:39:27;;;;;;;9.50;5.77;;;10.70;99.90;;;;;;5030480;28;20041;-48
2023/03/18 03:41:53;;;;;;;11.17;6.23;;;10.80;99.90;;;;;;5038829;28;20033;-48
2023/03/18 03:44:19;;;;;;;8.27;5.80;;;10.80;99.90;;;;;;5049401;28;20283;-49
2023/03/18 03:46:44;;;;;;;11.35;6.25;;;10.80;99.90;;;;;;5045417;28;20052;-47
2023/03/18 03:49:11;;;;;;;16.50;6.65;;;10.80;99.90;;;;;;5048568;28;20045;-48
2023/03/18 03:51:36;;;;;;;11.18;5.63;;;10.70;99.90;;;;;;5048959;28;20575;-49
2023/03/18 03:54:02;;;;;;;10.40;6.65;;;10.70;99.90;;;;;;5049669;28;20060;-48
2023/03/18 03:56:30;;;;;;;9.07;6.72;;;10.70;99.90;;;;;;5049251;28;20143;-49
2023/03/18 03:58:56;;;;;;;13.32;7.30;;;10.60;99.90;;;;;;5047280;28;20086;-47
2023/03/18 04:01:22;;;;;;;14.60;6.57;;;10.60;99.90;;;;;;5048013;28;20405;-47
2023/03/18 04:03:48;;;;;;;10.20;6.28;;;10.60;99.90;;;;;;5048549;28;20048;-48
2023/03/18 04:06:14;;;;;;;15.73;6.78;;;10.50;99.90;;;;;;5041921;28;20042;-48
2023/03/18 04:08:40;;;;;;;13.65;7.10;;;10.50;99.90;;;;;;5044588;28;20033;-47
2023/03/18 04:11:06;;;;;;;10.73;6.18;;;10.40;99.90;;;;;;5047971;28;20132;-52
2023/03/18 04:13:32;;;;;;;11.75;7.00;;;10.40;99.90;;;;;;5032917;28;20171;-46
2023/03/18 04:15:58;;;;;;;10.50;7.18;;;10.40;99.90;;;;;;5037232;28;20033;-47
2023/03/18 04:18:24;;;;;;;;;;;10.30;99.90;;;;;;5045448;28;20082;-48
2023/03/18 04:20:50;;;;;;;17.50;8.02;;;10.30;99.90;;;;;;5048241;28;19916;-48
2023/03/18 04:23:16;;;;;;;13.02;8.05;;;10.30;99.90;;;;;;5048189;28;20036;-48
2023/03/18 04:25:41;;;;;;;9.02;6.57;;;10.20;99.90;;;;;;5034299;28;20033;-48
2023/03/18 04:28:07;;;;;;;11.90;8.97;;;10.20;99.90;;;;;;5030618;28;20033;-48
2023/03/18 04:30:33;;;;;;;12.90;7.70;;;10.20;99.90;;;;;;5031036;28;20414;-48
2023/03/18 04:33:00;;;;;;;11.40;7.97;;;10.20;99.90;;;;;;5030791;28;20034;-53
2023/03/18 04:35:27;;;;;;;11.88;8.10;;;10.20;99.90;;;;;;5042464;28;20040;-53
2023/03/18 04:37:53;;;;;;;10.68;8.05;;;10.20;99.90;;;;;;5046159;28;20107;-53
2023/03/18 04:40:20;;;;;;;23.00;10.23;;;10.20;99.90;;;;;;5047730;28;20165;-53
2023/03/18 04:42:46;;;;;;;;;;;10.30;99.90;;;;;;5048094;28;20044;-51
2023/03/18 04:45:13;;;;;;;15.00;9.60;;;10.30;99.90;;;;;;5047896;28;20388;-52
2023/03/18 04:47:39;;;;;;;12.02;8.85;;;10.20;99.90;;;;;;5044215;28;20044;-54
2023/03/18 04:50:05;;;;;;;16.73;9.43;;;10.20;99.90;;;;;;5031467;28;20041;-54
2023/03/18 04:52:31;;;;;;;13.80;8.85;;;10.30;99.90;;;;;;5029920;28;20033;-49
2023/03/18 04:54:56;;;;;;;14.50;9.23;;;10.30;99.90;;;;;;5029963;28;20056;-54
2023/03/18 04:57:22;;;;;;;14.10;9.53;;;10.30;99.90;;;;;;5045071;28;20772;-51
2023/03/18 04:59:47;;;;;;;9.77;8.17;;;10.30;99.90;;;;;;5047140;28;20497;-50
2023/03/18 05:02:14;;;;;;;13.93;8.97;;;10.30;99.90;;;;;;5046345;28;20307;-54
2023/03/18 05:04:39;;;;;;;24.08;9.80;;;10.30;99.90;;;;;;5048420;28;20703;-48
2023/03/18 05:07:06;;;;;;;10.60;8.10;;;10.30;99.90;;;;;;5031233;28;20116;-52
2023/03/18 05:09:33;;;;;;;12.32;8.68;;;10.30;99.90;;;;;;5046332;28;20040;-52
2023/03/18 05:11:58;;;;;;;11.20;9.68;;;10.30;99.90;;;;;;5045426;28;20076;-49
2023/03/18 05:14:24;;;;;;;18.50;9.50;;;10.30;99.90;;;;;;5036927;28;20045;-53
2023/03/18 05:16:50;;;;;;;14.40;9.55;;;10.30;99.90;;;;;;5031244;28;20041;-50
2023/03/18 05:19:16;;;;;;;12.65;9.65;;;10.30;99.90;;;;;;5044096;28;20079;-49
2023/03/18 05:21:41;;;;;;;15.18;9.00;;;10.30;99.90;;;;;;5045186;28;20512;-46
2023/03/18 05:24:08;;;;;;;16.75;11.13;;;10.30;99.90;;;;;;5046847;28;20414;-50
2023/03/18 05:26:34;;;;;;;13.50;8.48;;;10.30;99.90;;;;;;5042053;28;20457;-50
2023/03/18 05:29:00;;;;;;;13.48;8.93;;;10.30;99.90;;;;;;5038425;28;20506;-50
2023/03/18 05:31:26;;;;;;;13.45;9.48;;;10.30;99.90;;;;;;5034309;28;20043;-48
2023/03/18 05:33:52;;;;;;;17.40;9.40;;;10.30;99.90;;;;;;5041702;28;20499;-49
2023/03/18 05:36:18;;;;;;;16.48;9.25;;;10.30;99.90;;;;;;5033799;28;20033;-48
2023/03/18 05:38:43;;;;;;;12.60;9.43;;;10.30;99.90;;;;;;5028461;28;20432;-48
2023/03/18 05:41:09;;;;;;;19.37;9.57;;;10.30;99.90;;;;;;5029499;28;20382;-51
2023/03/18 05:43:34;;;;;;;17.90;10.03;;;10.30;99.90;;;;;;5036401;28;20056;-49
2023/03/18 05:46:00;;;;;;;14.93;9.33;;;10.30;99.90;;;;;;5043957;28;20071;-48
2023/03/18 05:48:25;;;;;;;15.83;9.43;;;10.30;99.90;;;;;;5028318;28;20465;-47
2023/03/18 05:50:51;;;;;;;16.10;8.93;;;10.30;99.90;;;;;;5029365;28;20048;-47
2023/03/18 05:53:17;;;;;;;14.27;9.00;;;10.30;99.90;;;;;;5030475;28;20069;-47
2023/03/18 05:55:43;;;;;;;12.03;9.07;;;10.30;99.90;;;;;;5031473;28;20522;-48
2023/03/18 05:58:09;;;;;;;21.95;10.18;;;10.30;99.90;;;;;;5030965;28;20820;-48
2023/03/18 06:00:36;;;;;;;14.20;10.35;;;10.30;99.90;;;;;;5042428;28;20505;-48
2023/03/18 06:03:02;;;;;;;17.20;9.88;;;10.30;99.90;;;;;;5046602;28;20044;-48
2023/03/18 06:05:29;;;;;;;14.60;9.23;;;10.30;99.90;;;;;;5046731;28;20112;-47
2023/03/18 06:07:56;;;;;;;13.48;10.30;;;10.30;99.90;;;;;;5046214;28;20489;-48
2023/03/18 06:10:22;;;;;;;;;;;10.30;99.90;;;;;;5046262;28;20029;-47
2023/03/18 06:12:48;;;;;;;16.05;10.85;;;10.30;99.90;;;;;;5047020;28;19963;-48
2023/03/18 06:15:14;;;;;;;14.93;10.63;;;10.30;99.90;;;;;;5044468;28;20436;-48
2023/03/18 06:17:40;;;;;;;16.65;11.25;;;10.30;99.90;;;;;;5046678;28;20029;-47
2023/03/18 06:20:08;;;;;;;16.40;11.20;;;10.40;99.90;;;;;;5046662;28;20126;-48
2023/03/18 06:22:34;;;;;;;17.77;11.60;;;10.40;99.90;;;;;;5048208;28;20114;-48
2023/03/18 06:25:00;;;;;;;21.08;11.25;;;10.40;99.90;;;;;;5050212;28;20115;-48
2023/03/18 06:27:25;;;;;;;15.20;11.07;;;10.40;99.90;;;;;;5050910;28;20447;-46
2023/03/18 06:29:51;;;;;;;23.70;12.25;;;10.40;99.90;;;;;;5050489;28;20069;-48
2023/03/18 06:32:17;;;;;;;18.33;11.35;;;10.40;99.90;;;;;;5050720;28;20044;-48
2023/03/18 06:34:42;;;;;;;21.53;11.87;;;10.50;99.90;;;;;;5051146;28;20033;-48
2023/03/18 06:37:09;;;;;;;20.60;12.40;;;10.50;99.90;;;;;;5049136;28;20112;-47
2023/03/18 06:39:35;;;;;;;18.90;11.88;;;10.50;99.90;;;;;;5043465;28;20152;-48
2023/03/18 06:42:01;;;;;;;21.37;12.63;;;10.50;99.90;;;;;;5048011;28;20128;-47
2023/03/18 06:44:27;;;;;;;17.70;12.02;;;10.50;99.90;;;;;;5050631;28;20116;-47
2023/03/18 06:46:52;;;;;;;18.77;12.80;;;10.50;99.90;;;;;;5049863;28;20033;-47
2023/03/18 06:49:18;;;;;;;24.85;14.43;;;10.50;99.90;;;;;;5049617;28;20041;-47
2023/03/18 06:51:44;;;;;;;20.45;13.35;;;10.50;99.90;;;;;;5049778;28;20045;-48
2023/03/18 06:54:10;;;;;;;23.98;15.88;;;10.60;99.90;;;;;;5048571;28;20387;-47
2023/03/18 06:56:38;;;;;;;25.92;15.10;;;10.60;99.90;;;;;;5050282;28;20075;-48
2023/03/18 06:59:05;;;;;;;24.17;15.10;;;10.60;99.90;;;;;;5039328;28;20121;-48
2023/03/18 07:01:31;;;;;;;27.23;15.90;;;10.60;99.90;;;;;;5032025;28;20098;-48
2023/03/18 07:03:59;;;;;;;24.10;15.80;;;10.60;99.90;;;;;;5048403;28;20506;-48
2023/03/18 07:06:25;;;;;;;22.52;15.73;;;10.60;99.90;;;;;;5038825;28;20033;-48
2023/03/18 07:08:51;;;;;;;;;;;10.60;99.90;;;;;;5032656;28;20033;-46
2023/03/18 07:11:17;;;;;;;27.05;17.00;;;10.60;99.90;;;;;;5032097;28;20238;-47
2023/03/18 07:13:43;;;;;;;24.42;16.73;;;10.60;99.90;;;;;;5046436;28;20040;-47
2023/03/18 07:16:09;;;;;;;27.17;18.63;;;10.70;99.90;;;;;;5034805;28;20426;-48
2023/03/18 07:18:36;;;;;;;26.60;17.63;;;10.70;99.90;;;;;;5031544;28;20037;-48
2023/03/18 07:21:02;;;;;;;24.30;18.98;;;10.70;99.90;;;;;;5031617;28;20467;-47
2023/03/18 07:23:28;;;;;;;28.05;18.30;;;10.70;99.90;;;;;;5031324;28;20091;-47
2023/03/18 07:25:54;;;;;;;31.80;20.63;;;10.70;99.90;;;;;;5033065;28;20457;-46
2023/03/18 07:28:19;;;;;;;31.40;19.60;;;10.80;99.90;;;;;;5032087;28;20041;-46
2023/03/18 07:30:45;;;;;;;29.05;18.60;;;10.70;99.90;;;;;;5040941;28;20040;-48
2023/03/18 07:33:11;;;;;;;34.35;21.35;;;10.80;99.90;;;;;;5045629;28;20601;-47
2023/03/18 07:35:39;;;;;;;32.47;21.63;;;10.80;99.90;;;;;;5047273;28;20506;-48
2023/03/18 07:38:09;;;;;;;28.75;20.45;;;10.70;99.90;;;;;;5032642;28;20034;-48
2023/03/18 07:40:35;;;;;;;30.23;22.38;;;10.80;99.90;;;;;;5033277;28;20417;-48
2023/03/18 07:43:01;;;;;;;24.58;18.25;;;10.80;99.90;;;;;;5046722;28;20045;-47
2023/03/18 07:45:28;;;;;;;33.80;22.70;;;10.80;99.90;;;;;;5041690;28;20501;-47
2023/03/18 07:47:53;;;;;;;29.98;20.65;;;10.80;99.90;;;;;;5040345;28;20033;-47
2023/03/18 07:50:19;;;;;;;30.65;22.20;;;10.70;99.90;;;;;;5031237;28;20038;-48
2023/03/18 07:52:45;;;;;;;31.42;23.58;;;10.80;99.90;;;;;;5033037;28;20044;-47
2023/03/18 07:55:11;;;;;;;33.80;23.42;;;10.80;99.90;;;;;;5045477;28;20108;-48
2023/03/18 07:57:37;;;;;;;35.50;23.98;;;10.80;99.90;;;;;;5038248;28;20045;-47
2023/03/18 08:00:07;;;;;;;35.13;23.30;;;10.80;99.90;;;;;;5041511;28;20549;-48
2023/03/18 08:02:34;;;;;;;40.40;24.52;;;10.90;99.90;;;;;;5041871;28;20029;-48
2023/03/18 08:05:00;;;;;;;35.72;24.38;;;11.00;99.90;;;;;;5040817;28;20072;-47
2023/03/18 08:07:26;;;;;;;37.50;25.17;;;11.00;99.90;;;;;;5040328;28;20443;-47
2023/03/18 08:09:52;;;;;;;32.50;24.88;;;11.00;99.90;;;;;;5039491;28;20037;-48
2023/03/18 08:12:18;;;;;;;32.30;24.23;;;11.00;99.90;;;;;;5040465;28;20120;-48
2023/03/18 08:14:43;;;;;;;34.10;25.63;;;11.00;99.90;;;;;;5038121;28;20041;-48
2023/03/18 08:17:09;;;;;;;36.83;25.07;;;11.00;99.90;;;;;;5038642;28;20033;-47
2023/03/18 08:19:35;;;;;;;37.05;24.50;;;11.10;99.90;;;;;;5035312;28;20280;-47
2023/03/18 08:22:01;;;;;;;35.88;24.52;;;11.00;99.90;;;;;;5039588;28;20041;-48
2023/03/18 08:24:27;;;;;;;31.83;23.83;;;11.10;99.90;;;;;;5042516;28;20379;-48
2023/03/18 08:26:53;;;;;;;39.45;25.92;;;11.10;99.90;;;;;;5039152;28;20158;-48
2023/03/18 08:29:18;;;;;;;36.58;25.48;;;11.20;99.90;;;;;;5039572;28;20074;-47
2023/03/18 08:31:44;;;;;;;37.57;24.83;;;11.30;99.90;;;;;;5048339;28;20047;-47
2023/03/18 08:34:11;;;;;;;37.25;25.38;;;11.30;99.90;;;;;;5047469;28;20823;-48
2023/03/18 08:36:36;;;;;;;36.33;25.75;;;11.40;99.90;;;;;;5042442;28;20069;-48
2023/03/18 08:39:04;;;;;;;36.58;26.88;;;11.60;99.90;;;;;;5032775;28;20545;-48
2023/03/18 08:41:31;;;;;;;34.53;26.88;;;11.70;99.90;;;;;;5036517;28;20042;-47
2023/03/18 08:43:57;;;;;;;37.28;25.73;;;11.90;99.90;;;;;;5035292;28;20036;-48
2023/03/18 08:46:23;;;;;;;39.47;25.92;;;12.00;99.90;;;;;;5042773;28;20045;-48
2023/03/18 08:48:50;;;;;;;35.15;25.17;;;12.10;99.90;;;;;;5046375;28;20107;-49
2023/03/18 08:51:16;;;;;;;36.33;23.42;;;12.20;99.90;;;;;;5035770;28;20076;-48
2023/03/18 08:53:41;;;;;;;31.58;24.75;;;12.40;99.90;;;;;;5037628;28;20072;-48
2023/03/18 08:56:07;;;;;;;34.17;24.20;;;12.50;99.90;;;;;;5047795;28;20040;-47
2023/03/18 08:58:34;;;;;;;35.25;25.83;;;12.70;99.90;;;;;;5033847;28;20061;-51
2023/03/18 09:01:02;;;;;;;32.38;25.48;;;12.80;99.90;;;;;;5035847;28;20115;-49
2023/03/18 09:03:27;;;;;;;31.73;23.17;;;12.90;99.90;;;;;;5033279;28;20052;-48
2023/03/18 09:05:54;;;;;;;33.90;22.00;;;13.10;99.90;;;;;;5044135;28;20033;-47
2023/03/18 09:08:20;;;;;;;26.58;20.13;;;13.30;99.90;;;;;;5046713;28;20509;-48
2023/03/18 09:10:47;;;;;;;27.42;21.17;;;13.50;99.90;;;;;;5045730;28;20041;-48
2023/03/18 09:13:13;;;;;;;28.73;20.05;;;13.70;99.90;;;;;;5047606;28;20064;-48
2023/03/18 09:15:40;;;;;;;30.55;21.63;;;13.80;99.90;;;;;;5045889;28;20120;-49
2023/03/18 09:18:05;;;;;;;25.05;19.13;;;14.00;99.90;;;;;;5041836;28;20033;-48
2023/03/18 09:20:32;;;;;;;28.42;19.17;;;14.00;99.90;;;;;;5035348;28;20056;-48
2023/03/18 09:22:58;;;;;;;25.42;17.77;;;14.00;99.90;;;;;;5031939;28;20453;-47
2023/03/18 09:25:24;;;;;;;28.65;20.45;;;14.10;99.90;;;;;;5042414;28;20047;-49
2023/03/18 09:27:50;;;;;;;24.27;18.05;;;14.10;99.90;;;;;;5033005;28;20519;-50
2023/03/18 09:30:16;;;;;;;25.35;17.65;;;14.20;99.90;;;;;;5038631;28;20486;-49
2023/03/18 09:32:42;;;;;;;23.63;19.40;;;14.20;99.90;;;;;;5045217;28;20684;-48
2023/03/18 09:35:08;;;;;;;23.98;17.42;;;14.20;99.90;;;;;;5041854;28;20049;-48
2023/03/18 09:37:34;;;;;;;;;;;14.10;99.90;;;;;;5034838;28;20293;-48
2023/03/18 09:40:00;;;;;;;19.52;15.38;;;14.10;99.90;;;;;;5034736;28;19923;-49
2023/03/18 09:42:48;;;;;;;22.30;16.75;;;14.10;99.90;;;;;;5046104;28;20037;-49
2023/03/18 09:45:23;;;;;;;19.45;16.45;;;14.20;99.90;;;;;;5046670;28;20093;-49
2023/03/18 09:48:01;;;;;;;18.98;13.82;;;14.40;99.90;;;;;;5038707;28;20127;-48
2023/03/18 09:50:38;;;;;;;17.45;12.95;;;14.50;99.90;;;;;;5037832;28;20037;-48
2023/03/18 09:53:16;;;;;;;15.43;11.93;;;14.60;99.90;;;;;;5042005;28;20073;-49
2023/03/18 09:55:52;;;;;;;15.40;11.52;;;14.70;99.90;;;;;;5046497;28;20037;-48
2023/03/18 09:58:26;;;;;;;15.52;11.75;;;14.80;99.90;;;;;;5049662;28;20063;-49
2023/03/18 10:00:57;;;;;;;15.63;10.55;;;14.80;99.90;;;;;;5052699;28;20565;-48
2023/03/18 10:03:34;;;;;;;15.32;11.82;;;14.90;99.90;;;;;;5049691;28;20040;-48
2023/03/18 10:06:26;;;;;;;14.30;11.50;;;14.90;99.90;;;;;;5044574;28;20041;-49
2023/03/18 10:09:11;;;;;;;16.35;11.00;;;15.00;99.90;;;;;;5041775;28;20502;-47
2023/03/18 10:11:45;;;;;;;12.27;8.60;;;14.90;99.90;;;;;;5038957;28;20067;-49
2023/03/18 10:14:26;;;;;;;9.70;8.70;;;14.90;99.90;;;;;;5035813;28;20041;-48
2023/03/18 10:17:06;;;;;;;12.25;9.07;;;14.70;99.90;;;;;;5036840;28;20510;-48
2023/03/18 10:19:33;;;;;;;10.25;9.10;;;14.60;99.90;;;;;;5048102;28;20052;-48
2023/03/18 10:22:19;;;;;;;11.43;9.25;;;14.60;99.90;;;;;;5037320;28;20171;-48
2023/03/18 10:25:02;;;;;;;11.57;9.27;;;14.60;99.90;;;;;;5043814;28;20037;-48
2023/03/18 10:27:46;;;;;;;10.20;8.57;;;14.80;99.90;;;;;;5036141;28;21199;-48
2023/03/18 10:30:33;;;;;;;10.02;8.00;;;14.90;99.90;;;;;;5039042;28;20045;-50
2023/03/18 10:33:18;;;;;;;11.40;8.85;;;15.00;99.90;;;;;;5050351;28;20072;-49
2023/03/18 10:36:16;;;;;;;12.70;9.25;;;15.00;99.90;;;;;;5038387;28;20041;-50
2023/03/18 10:38:49;;;;;;;10.73;9.70;;;14.90;99.90;;;;;;5052166;28;20510;-53
2023/03/18 10:41:22;;;;;;;10.40;9.38;;;14.80;99.90;;;;;;5047462;28;20045;-54
2023/03/18 10:43:50;;;;;;;10.93;9.50;;;14.70;99.90;;;;;;5049765;28;20307;-52
2023/03/18 10:46:18;;;;;;;11.68;9.88;;;14.70;99.90;;;;;;5049601;28;20506;-51
2023/03/18 10:49:06;;;;;;;13.93;11.98;;;14.90;99.90;;;;;;5048257;28;20032;-49
2023/03/18 10:52:07;;;;;;;12.98;11.65;;;15.00;99.90;;;;;;5040775;28;20498;-51
2023/03/18 10:54:41;;;;;;;16.15;11.82;;;15.10;99.90;;;;;;5028269;28;20055;-52
2023/03/18 10:57:15;;;;;;;18.17;12.25;;;15.20;99.90;;;;;;5047775;28;20048;-49
2023/03/18 10:59:44;;;;;;;15.07;12.15;;;15.30;99.90;;;;;;5043931;28;20057;-52
2023/03/18 11:02:40;;;;;;;15.02;11.65;;;15.30;99.90;;;;;;5035844;28;20041;-53
2023/03/18 11:05:22;;;;;;;14.95;13.40;;;15.40;99.90;;;;;;5007966;28;20053;-50
2023/03/18 11:08:33;;;;;;;14.00;11.82;;;15.60;99.90;;;;;;5004595;28;20132;-50
2023/03/18 11:11:21;;;;;;;16.63;12.85;;;15.70;99.90;;;;;;4983774;28;20046;-51
2023/03/18 11:13:51;;;;;;;14.43;13.00;;;15.80;99.90;;;;;;5001616;28;20082;-52
2023/03/18 11:16:44;;;;;;;15.35;12.50;;;15.90;99.90;;;;;;4999372;28;20085;-52
2023/03/18 11:19:24;;;;;;;16.33;12.15;;;15.90;99.90;;;;;;4997338;28;20050;-52
2023/03/18 11:22:18;;;;;;;12.15;10.57;;;15.90;99.90;;;;;;5005211;28;20046;-52
2023/03/18 11:24:45;;;;;;;12.90;11.00;;;16.00;99.90;;;;;;4982958;28;20137;-51
2023/03/18 11:27:13;;;;;;;;;;;16.10;99.90;;;;;;5004355;28;20057;-48
2023/03/18 11:29:53;;;;;;;14.02;10.13;;;16.20;99.90;;;;;;4997669;28;20403;-51
2023/03/18 11:32:37;;;;;;;14.20;10.65;;;16.30;99.90;;;;;;4995827;28;20034;-51
2023/03/18 11:35:07;;;;;;;15.15;11.70;;;16.40;99.90;;;;;;5002601;28;20050;-53
2023/03/18 11:37:39;;;;;;;17.88;11.85;;;16.50;99.90;;;;;;4984209;28;20168;-48
2023/03/18 11:40:18;;;;;;;10.82;9.70;;;16.50;99.90;;;;;;4994760;28;20031;-54
2023/03/18 11:42:46;;;;;;;13.02;10.00;;;16.50;99.90;;;;;;5048245;28;20033;-50
2023/03/18 11:45:36;;;;;;;12.75;9.90;;;16.50;99.90;;;;;;5048617;28;20037;-51
2023/03/18 11:48:04;;;;;;;10.30;9.20;;;16.60;99.90;;;;;;5046275;28;20140;-50
2023/03/18 11:50:41;;;;;;;11.77;9.50;;;16.70;99.90;;;;;;5034240;28;20048;-50
2023/03/18 11:53:11;;;;;;;15.77;10.35;;;16.70;99.90;;;;;;5035431;28;20958;-51
2023/03/18 11:55:55;;;;;;;12.32;9.80;;;16.60;99.90;;;;;;5034340;28;20465;-50
2023/03/18 11:58:42;;;;;;;11.15;10.05;;;16.50;99.90;;;;;;5036177;28;20079;-48
2023/03/18 12:01:16;;;;;;;12.32;10.07;;;16.50;99.90;;;;;;5035548;28;20633;-48
2023/03/18 12:04:18;;;;;;;10.85;9.77;;;16.50;99.90;;;;;;5043958;28;20410;-48
2023/03/18 12:07:04;;;;;;;10.40;9.40;;;16.60;99.90;;;;;;5045522;28;20381;-52
2023/03/18 12:09:43;;;;;;;10.87;9.73;;;16.70;99.90;;;;;;5035791;28;20041;-53
2023/03/18 12:12:12;;;;;;;11.20;8.90;;;16.80;99.90;;;;;;5031069;28;20312;-50
2023/03/18 12:15:01;;;;;;;10.75;9.65;;;16.90;99.90;;;;;;5044564;28;20525;-48
2023/03/18 12:17:45;;;;;;;10.68;8.43;;;16.90;99.90;;;;;;5038279;28;20040;-51
2023/03/18 12:20:42;;;;;;;10.52;8.95;;;17.00;99.90;;;;;;5046733;28;20358;-50
2023/03/18 12:23:31;;;;;;;11.05;8.48;;;16.90;99.90;;;;;;5033566;28;20041;-51
2023/03/18 12:26:22;;;;;;;9.18;7.82;;;16.90;99.90;;;;;;5046363;28;20037;-48
2023/03/18 12:29:39;;;;;;;7.88;6.97;;;16.80;99.90;;;;;;5046773;28;20168;-49
2023/03/18 12:32:33;;;;;;;8.07;6.88;;;16.70;99.90;;;;;;5011864;28;20064;-49
2023/03/18 12:35:15;;;;;;;7.72;5.90;;;16.60;99.90;;;;;;5034611;28;20346;-53
2023/03/18 12:38:25;;;;;;;7.38;5.40;;;16.60;99.90;;;;;;5037911;28;20029;-51
2023/03/18 12:41:32;;;;;;;6.18;4.88;;;16.60;99.90;;;;;;5030677;28;20042;-49
2023/03/18 12:44:03;;;;;;;5.57;4.30;;;16.60;99.90;;;;;;5038828;28;20045;-50
2023/03/18 12:46:47;;;;;;;5.47;4.95;;;16.50;99.90;;;;;;5039167;28;20044;-51
2023/03/18 12:49:24;;;;;;;6.65;4.95;;;16.50;99.90;;;;;;5041367;28;20041;-49
2023/03/18 12:52:02;;;;;;;8.60;5.63;;;16.40;99.90;;;;;;5046737;28;20068;-49
2023/03/18 12:54:49;;;;;;;7.63;5.43;;;16.40;99.90;;;;;;5044343;28;20083;-49